Darstellungsparameter: Aktuell verwendete Einstellungen:
Skalierung der Graphiken ... ?
xyx+y,   Skalierungsfaktor:      Skalierung: Modus: x, Faktor: 1
Darstellungszeitraum ... ?
Vom - - bis: - -   Zeitraum: 28.01.2022 - 28.01.2022
Min/Max/Avg-Anzeige ... ?
Zeige MMA aktuell
Zeige MMA Monat
Zeige MMA alles
Zeige --A aktuell
Zeige --A Monat
Zeige --A alles
Keine MMA-Anzeige
MMA:
Average (ber die Originaldaten)
MMA-Basis: 28.01.2022 - 28.01.2022
Quicknavigation für Darstellung... ?
Tage:      1T, 2T, 3T, 5T -1T -2T -3T -5T +1T +2T +3T +5T
Wochen: 1W, 2W, 3W -1W -2W -3W +1W +2W +3W
Monate: 1M, 3M, 6M -1M -3M -6M +1M +3M +6M
Jahre:    1J, 3J, 5J, 10J -1J -3J -5J -10J +1J +3J +5J +10J
Nutze für die Darstellung ... ?
Originaldaten oder Mittelwerte auf ...
Stundenbasis Tagesbasis Wochenbasis
Monatsbasis Jahresbasis      Datenbasis: Original-Daten
Darstellen als:
Statistik (Auto) Statistik J:M      Darstellung:

Der gewünschte Datumsbereich war nicht gültig/verfügbar und wurde korrigiert....
Das angegebene Enddatum (02.12.2031 23:59:59) liegt in der Zukunft.
Das angegebene Startdatum (02.12.2031 00:00:00) liegt in der Zukunft.


Zur Graphik,    zurück zur Übersicht aller Sensoren.
 
Tabellarische Datenbersicht: ?
 
Sensor: Nr:Datum:Temp:Abs-Feuchte:Windchill:Wind:
Aussen-T/F 1 28-01-2022 01:00:00 6.9 C 6.16 g/m*3 3.54 C 19.3 km/h
2 28-01-2022 01:05:00 6.9 C 6.16 g/m*3 3.94 C 16.1 km/h
3 28-01-2022 01:10:00 6.9 C 6.16 g/m*3 4.68 C 11.3 km/h
4 28-01-2022 01:15:00 6.8 C 6.12 g/m*3 4.29 C 12.9 km/h
5 28-01-2022 01:20:00 6.8 C 6.12 g/m*3 4.56 C 11.3 km/h
6 28-01-2022 01:25:00 6.7 C 6.15 g/m*3 4.17 C 12.9 km/h
7 28-01-2022 01:30:00 6.7 C 6.15 g/m*3 4.44 C 11.3 km/h
8 28-01-2022 01:35:00 6.7 C 6.15 g/m*3 4.75 C 9.7 km/h
9 28-01-2022 01:40:00 6.7 C 6.15 g/m*3 3.29 C 19.3 km/h
10 28-01-2022 01:45:00 6.7 C 6.31 g/m*3 2.94 C 22.5 km/h
11 28-01-2022 01:50:00 6.4 C 6.33 g/m*3 2.56 C 22.5 km/h
12 28-01-2022 01:55:00 6.2 C 6.4 g/m*3 4.52 C 8.1 km/h
13 28-01-2022 02:00:00 6 C 6.39 g/m*3 3.06 C 14.5 km/h
14 28-01-2022 02:05:00 5.8 C 6.38 g/m*3 4.52 C 6.4 km/h
15 28-01-2022 02:10:00 5.6 C 6.29 g/m*3 4.29 C 6.4 km/h
16 28-01-2022 02:15:00 5.3 C 6.17 g/m*3 5.3 C 3.2 km/h
17 28-01-2022 02:20:00 5.1 C 6.16 g/m*3 2.51 C 11.3 km/h
18 28-01-2022 02:25:00 4.9 C 6.14 g/m*3 4.9 C 4.8 km/h
19 28-01-2022 02:30:00 4.8 C 6.17 g/m*3 4.8 C 4.8 km/h
20 28-01-2022 02:35:00 4.8 C 6.17 g/m*3 2.87 C 8.1 km/h
21 28-01-2022 02:40:00 4.7 C 6.13 g/m*3 4.7 C 3.2 km/h
22 28-01-2022 02:45:00 4.7 C 6.19 g/m*3 2.37 C 9.7 km/h
23 28-01-2022 02:50:00 4.8 C 6.24 g/m*3 2.87 C 8.1 km/h
24 28-01-2022 02:55:00 4.8 C 6.17 g/m*3 2.15 C 11.3 km/h
25 28-01-2022 03:00:00 4.9 C 6.21 g/m*3 2.61 C 9.7 km/h
Sensor: Nr:Datum:Temp:Abs-Feuchte:Windchill:Wind:
Aussen-T/F 26 28-01-2022 03:05:00 5.1 C 6.29 g/m*3 1.49 C 17.7 km/h
27 28-01-2022 03:10:00 5.2 C 6.27 g/m*3 2.07 C 14.5 km/h
28 28-01-2022 03:15:00 5.2 C 6.2 g/m*3 2.96 C 9.7 km/h
29 28-01-2022 03:20:00 5.3 C 6.24 g/m*3 1.53 C 19.3 km/h
30 28-01-2022 03:25:00 5.3 C 6.17 g/m*3 2.46 C 12.9 km/h
31 28-01-2022 03:30:00 5.4 C 6.14 g/m*3 2.58 C 12.9 km/h
32 28-01-2022 03:35:00 5.4 C 6.14 g/m*3 3.2 C 9.7 km/h
33 28-01-2022 03:40:00 5.6 C 6.22 g/m*3 2.83 C 12.9 km/h
34 28-01-2022 03:45:00 5.6 C 6.15 g/m*3 2.83 C 12.9 km/h
35 28-01-2022 03:50:00 5.6 C 6.15 g/m*3 3.11 C 11.3 km/h
36 28-01-2022 03:55:00 5.7 C 6.19 g/m*3 3.93 C 8.1 km/h
37 28-01-2022 04:00:00 5.6 C 6.15 g/m*3 2.33 C 16.1 km/h
38 28-01-2022 04:05:00 5.6 C 6.15 g/m*3 2.83 C 12.9 km/h
39 28-01-2022 04:10:00 5.6 C 6.15 g/m*3 3.81 C 8.1 km/h
40 28-01-2022 04:15:00 5.5 C 6.11 g/m*3 3.7 C 8.1 km/h
41 28-01-2022 04:20:00 5.4 C 6.07 g/m*3 4.06 C 6.4 km/h
42 28-01-2022 04:25:00 5.4 C 6 g/m*3 2.58 C 12.9 km/h
43 28-01-2022 04:30:00 5.4 C 6 g/m*3 4.06 C 6.4 km/h
44 28-01-2022 04:35:00 5.3 C 5.96 g/m*3 3.46 C 8.1 km/h
45 28-01-2022 04:40:00 5.2 C 5.92 g/m*3 3.34 C 8.1 km/h
46 28-01-2022 04:45:00 5.2 C 5.92 g/m*3 3.34 C 8.1 km/h
47 28-01-2022 04:50:00 5.1 C 5.88 g/m*3 2.51 C 11.3 km/h
48 28-01-2022 04:55:00 4.9 C 5.81 g/m*3 2.99 C 8.1 km/h
49 28-01-2022 05:00:00 4.8 C 5.77 g/m*3 4.8 C 4.8 km/h
50 28-01-2022 05:05:00 4.7 C 5.8 g/m*3 2.76 C 8.1 km/h
Sensor: Nr:Datum:Temp:Abs-Feuchte:Windchill:Wind:
Aussen-T/F 51 28-01-2022 05:10:00 4.6 C 5.76 g/m*3 2.25 C 9.7 km/h
52 28-01-2022 05:15:00 4.6 C 5.76 g/m*3 2.64 C 8.1 km/h
53 28-01-2022 05:20:00 4.6 C 5.82 g/m*3 3.13 C 6.4 km/h
54 28-01-2022 05:25:00 4.5 C 5.78 g/m*3 4.5 C 4.8 km/h
55 28-01-2022 05:30:00 4.4 C 5.75 g/m*3 1.67 C 11.3 km/h
56 28-01-2022 05:35:00 4.4 C 5.75 g/m*3 2.01 C 9.7 km/h
57 28-01-2022 05:40:00 4.5 C 5.78 g/m*3 3.02 C 6.4 km/h
58 28-01-2022 05:45:00 4.6 C 5.82 g/m*3 1.61 C 12.9 km/h
59 28-01-2022 05:50:00 4.7 C 5.8 g/m*3 0.99 C 17.7 km/h
60 28-01-2022 05:55:00 4.8 C 5.83 g/m*3 2.49 C 9.7 km/h
61 28-01-2022 06:00:00 4.8 C 5.83 g/m*3 2.15 C 11.3 km/h
62 28-01-2022 06:05:00 4.8 C 5.83 g/m*3 2.15 C 11.3 km/h
63 28-01-2022 06:10:00 4.8 C 5.83 g/m*3 2.49 C 9.7 km/h
64 28-01-2022 06:15:00 4.8 C 5.9 g/m*3 2.15 C 11.3 km/h
65 28-01-2022 06:20:00 4.9 C 5.87 g/m*3 2.99 C 8.1 km/h
66 28-01-2022 06:25:00 4.9 C 5.87 g/m*3 1.97 C 12.9 km/h
67 28-01-2022 06:30:00 4.9 C 5.87 g/m*3 2.27 C 11.3 km/h
68 28-01-2022 06:35:00 4.9 C 5.87 g/m*3 3.48 C 6.4 km/h
69 28-01-2022 06:40:00 4.8 C 5.83 g/m*3 2.15 C 11.3 km/h
70 28-01-2022 06:45:00 4.8 C 5.9 g/m*3 1.85 C 12.9 km/h
71 28-01-2022 06:50:00 4.7 C 5.86 g/m*3 2.76 C 8.1 km/h
72 28-01-2022 06:55:00 4.7 C 5.86 g/m*3 1.73 C 12.9 km/h
73 28-01-2022 07:00:00 4.7 C 5.86 g/m*3 2.76 C 8.1 km/h
74 28-01-2022 07:05:00 4.6 C 5.82 g/m*3 3.13 C 6.4 km/h
75 28-01-2022 07:10:00 4.6 C 5.82 g/m*3 3.13 C 6.4 km/h
Sensor: Nr:Datum:Temp:Abs-Feuchte:Windchill:Wind:
Aussen-T/F 76 28-01-2022 07:15:00 4.4 C 5.81 g/m*3 2.4 C 8.1 km/h
77 28-01-2022 07:20:00 4.4 C 5.81 g/m*3 2.4 C 8.1 km/h
78 28-01-2022 07:25:00 4.3 C 5.77 g/m*3 1.55 C 11.3 km/h
79 28-01-2022 07:30:00 4.3 C 5.77 g/m*3 4.3 C 1.6 km/h
80 28-01-2022 07:35:00 4.2 C 5.73 g/m*3 4.2 C 3.2 km/h
81 28-01-2022 07:40:00 4.1 C 5.7 g/m*3 2.05 C 8.1 km/h
82 28-01-2022 07:45:00 4.1 C 5.76 g/m*3 1 C 12.9 km/h
83 28-01-2022 07:50:00 4.2 C 5.8 g/m*3 1.43 C 11.3 km/h
84 28-01-2022 07:55:00 4.4 C 5.88 g/m*3 1.67 C 11.3 km/h
85 28-01-2022 08:00:00 4.6 C 5.96 g/m*3 1.91 C 11.3 km/h
86 28-01-2022 08:05:00 4.7 C 5.93 g/m*3 4.7 C 1.6 km/h
87 28-01-2022 08:10:00 4.7 C 5.93 g/m*3 3.25 C 6.4 km/h
88 28-01-2022 08:15:00 4.8 C 5.97 g/m*3 2.49 C 9.7 km/h
89 28-01-2022 08:20:00 4.9 C 6.01 g/m*3 4.9 C 4.8 km/h
90 28-01-2022 08:25:00 4.9 C 5.94 g/m*3 2.61 C 9.7 km/h
91 28-01-2022 08:30:00 5 C 5.98 g/m*3 1.83 C 14.5 km/h
92 28-01-2022 08:35:00 5.1 C 6.02 g/m*3 3.23 C 8.1 km/h
93 28-01-2022 08:40:00 5.1 C 5.95 g/m*3 3.23 C 8.1 km/h
94 28-01-2022 08:45:00 5.1 C 5.95 g/m*3 2.51 C 11.3 km/h
95 28-01-2022 08:50:00 5.1 C 6.02 g/m*3 2.51 C 11.3 km/h
96 28-01-2022 08:55:00 5.2 C 6.06 g/m*3 2.34 C 12.9 km/h
97 28-01-2022 09:00:00 5.2 C 5.99 g/m*3 3.82 C 6.4 km/h
98 28-01-2022 09:05:00 5.2 C 5.99 g/m*3 3.34 C 8.1 km/h
99 28-01-2022 09:10:00 5.2 C 5.99 g/m*3 3.34 C 8.1 km/h
100 28-01-2022 09:15:00 5.2 C 5.99 g/m*3 3.34 C 8.1 km/h
Sensor: Nr:Datum:Temp:Abs-Feuchte:Windchill:Wind:
Aussen-T/F 101 28-01-2022 09:20:00 5.2 C 5.99 g/m*3 3.82 C 6.4 km/h
102 28-01-2022 09:25:00 5.1 C 5.95 g/m*3 5.1 C 4.8 km/h
103 28-01-2022 09:30:00 5.1 C 6.02 g/m*3 5.1 C 3.2 km/h
104 28-01-2022 09:35:00 5.2 C 5.99 g/m*3 2.63 C 11.3 km/h
105 28-01-2022 09:40:00 5.2 C 5.99 g/m*3 5.2 C 4.8 km/h
106 28-01-2022 09:45:00 5.2 C 5.99 g/m*3 2.96 C 9.7 km/h
107 28-01-2022 09:50:00 5.3 C 6.03 g/m*3 3.94 C 6.4 km/h
108 28-01-2022 09:55:00 5.3 C 6.03 g/m*3 5.3 C 0 km/h
109 28-01-2022 10:00:00 5.3 C 6.03 g/m*3 5.3 C 0 km/h
110 28-01-2022 10:05:00 5.3 C 6.03 g/m*3 3.08 C 9.7 km/h
111 28-01-2022 10:10:00 5.3 C 6.03 g/m*3 3.94 C 6.4 km/h
112 28-01-2022 10:15:00 5.4 C 6.07 g/m*3 3.58 C 8.1 km/h

Legende:
   Min
   Max


Maximal/Minimal-Werte vom 28.01.2022 - 28.01.2022

Sensor Min Max Avg
Temp
(Aussen-T/F)
4.1 °C
28-01-2022  07:40:00
6.9 °C
28-01-2022  01:00:00
5.16 °C
Abs-Feuchte
(Aussen-T/F)
5.7 g/m*3
28-01-2022  07:40:00
6.4 g/m*3
28-01-2022  01:55:00
5.95 g/m*3
Windchill
(Aussen-T/F)
0.99 C
28-01-2022  05:50:00
5.3 C
28-01-2022  02:15:00
3.11 C

Die Daten stammen von einer Davis Vantage Pro 2 Wetter-Station und werden unter Linux mit der Software wview2wettercgi und aufbereitet. Alle Angaben erfolgen ohne Gewähr für ihre Vollständigkeit oder Richtigkeit.
Kontakt: Rainer Krienke krienke@uni-koblenz.de . Meine Webseiten an der Uni Koblenz oder privat.
Version: $Revision: 0.78 $